createdAt,value
2022-08-08T00:02:04.091Z,4.00
2022-08-08T00:04:16.351Z,3.63
2022-08-08T00:06:50.028Z,3.63
2022-08-08T00:09:19.080Z,3.38
2022-08-08T00:12:07.612Z,3.80
2022-08-08T00:14:48.299Z,2.97
2022-08-08T00:16:56.079Z,3.05
2022-08-08T00:19:13.868Z,3.90
2022-08-08T00:21:23.774Z,3.40
2022-08-08T00:23:47.727Z,3.47
2022-08-08T00:25:59.129Z,2.65
2022-08-08T00:28:08.162Z,3.40
2022-08-08T00:30:56.105Z,2.75
2022-08-08T00:33:13.474Z,3.38
2022-08-08T00:35:34.692Z,2.97
2022-08-08T00:38:02.354Z,3.42
2022-08-08T00:41:08.857Z,3.10
2022-08-08T00:42:43.116Z,3.08
2022-08-08T00:44:54.730Z,2.67
2022-08-08T00:48:05.070Z,3.60
2022-08-08T00:50:22.687Z,2.80
2022-08-08T00:52:56.369Z,3.00
2022-08-08T00:55:52.556Z,2.90
2022-08-08T00:58:30.643Z,3.20
2022-08-08T01:00:50.420Z,3.25
2022-08-08T01:03:58.096Z,3.03
2022-08-08T01:06:27.745Z,3.47
2022-08-08T01:08:50.257Z,2.45
2022-08-08T01:11:25.494Z,2.63
2022-08-08T01:14:05.021Z,3.00
2022-08-08T01:16:19.781Z,3.00
2022-08-08T01:21:09.369Z,2.47
2022-08-08T01:24:02.870Z,2.50
2022-08-08T01:26:19.247Z,2.80
2022-08-08T01:28:47.229Z,3.00
2022-08-08T01:32:05.622Z,3.08
2022-08-08T01:34:11.486Z,2.85
2022-08-08T01:37:17.581Z,2.90
2022-08-08T01:39:45.241Z,3.47
2022-08-08T01:41:52.567Z,2.95
2022-08-08T01:44:10.144Z,2.50
2022-08-08T01:46:40.646Z,2.42
2022-08-08T01:48:57.408Z,2.63
2022-08-08T01:51:31.974Z,2.50
2022-08-08T01:55:17.606Z,2.25
2022-08-08T01:56:30.805Z,2.47
2022-08-08T01:58:48.673Z,2.85
2022-08-08T02:01:04.115Z,3.03
2022-08-08T02:03:57.529Z,2.58
2022-08-08T02:06:03.060Z,3.50
2022-08-08T02:08:18.086Z,2.20
2022-08-08T02:10:54.550Z,2.75
2022-08-08T02:13:54.525Z,2.85
2022-08-08T02:16:59.576Z,2.78
2022-08-08T02:19:58.024Z,2.60
2022-08-08T02:22:28.277Z,3.38
2022-08-08T02:27:42.299Z,2.88
2022-08-08T02:30:20.787Z,2.63
2022-08-08T02:32:31.338Z,3.10
2022-08-08T02:35:07.496Z,3.10
2022-08-08T02:37:52.278Z,2.90
2022-08-08T02:40:00.879Z,2.80
2022-08-08T02:42:41.935Z,2.78
2022-08-08T02:45:22.470Z,3.17
2022-08-08T02:47:52.007Z,3.67
2022-08-08T02:52:38.758Z,3.40
2022-08-08T02:55:03.220Z,2.70
2022-08-08T02:57:44.570Z,3.15
2022-08-08T03:00:26.478Z,2.58
2022-08-08T03:02:40.321Z,2.92
2022-08-08T03:05:09.478Z,2.90
2022-08-08T03:07:25.093Z,3.10
2022-08-08T03:10:01.518Z,3.25
2022-08-08T03:13:01.930Z,2.63
2022-08-08T03:15:58.108Z,2.95
2022-08-08T03:18:06.877Z,3.13
2022-08-08T03:20:11.735Z,3.05
2022-08-08T03:22:37.529Z,3.40
2022-08-08T03:24:36.602Z,3.40
2022-08-08T03:27:01.461Z,2.97
2022-08-08T03:29:17.130Z,3.50
2022-08-08T03:32:06.266Z,3.22
2022-08-08T03:34:05.954Z,2.83
2022-08-08T03:38:57.942Z,3.22
2022-08-08T03:40:54.236Z,3.35
2022-08-08T03:42:58.807Z,2.83
2022-08-08T03:46:05.095Z,2.83
2022-08-08T03:48:05.729Z,3.20
2022-08-08T03:50:24.568Z,3.65
2022-08-08T03:52:31.215Z,2.97
2022-08-08T03:54:51.791Z,3.03
2022-08-08T03:56:58.534Z,3.28
2022-08-08T03:59:01.194Z,2.72
2022-08-08T04:01:25.952Z,2.80
2022-08-08T04:03:57.351Z,2.38
2022-08-08T04:05:59.039Z,2.88
2022-08-08T04:08:07.591Z,3.05
2022-08-08T04:10:10.478Z,2.70
2022-08-08T04:12:13.480Z,2.95
2022-08-08T04:14:33.421Z,2.63
2022-08-08T04:16:40.772Z,2.72
2022-08-08T04:18:48.558Z,3.00
2022-08-08T04:20:51.800Z,2.70
2022-08-08T04:22:54.408Z,3.00
2022-08-08T04:24:59.840Z,3.40
2022-08-08T04:27:07.554Z,2.55
2022-08-08T04:29:15.086Z,2.45
2022-08-08T04:31:30.811Z,2.45
2022-08-08T04:33:42.126Z,2.72
2022-08-08T04:35:51.028Z,2.90
2022-08-08T04:37:55.435Z,2.40
2022-08-08T04:40:07.038Z,2.38
2022-08-08T04:42:11.298Z,2.60
2022-08-08T04:44:18.373Z,3.30
2022-08-08T04:46:25.065Z,3.08
2022-08-08T04:48:27.814Z,2.47
2022-08-08T04:50:38.715Z,2.25
2022-08-08T04:52:42.737Z,2.38
2022-08-08T04:54:51.144Z,2.90
2022-08-08T04:56:54.722Z,2.65
2022-08-08T04:58:57.321Z,2.28
2022-08-08T05:00:59.947Z,2.10
2022-08-08T05:03:12.588Z,2.40
2022-08-08T05:05:20.335Z,2.83
2022-08-08T05:07:42.638Z,2.42
2022-08-08T05:09:45.599Z,2.40
2022-08-08T05:11:57.026Z,2.45
2022-08-08T05:14:02.239Z,2.70
2022-08-08T05:16:48.209Z,1.98
2022-08-08T05:18:28.335Z,2.72
2022-08-08T05:20:30.934Z,2.42
2022-08-08T05:22:34.080Z,2.35
2022-08-08T05:24:38.649Z,2.72
2022-08-08T05:26:48.733Z,2.10
2022-08-08T05:28:57.131Z,2.40
2022-08-08T05:31:19.258Z,2.90
2022-08-08T05:33:43.971Z,2.25
2022-08-08T05:35:54.340Z,2.55
2022-08-08T05:38:04.597Z,2.40
2022-08-08T05:40:29.278Z,2.35
2022-08-08T05:42:44.896Z,2.20
2022-08-08T05:44:49.224Z,2.53
2022-08-08T05:46:54.865Z,2.30
2022-08-08T05:49:11.261Z,2.17
2022-08-08T05:51:15.591Z,2.22
2022-08-08T05:54:25.797Z,2.05
2022-08-08T05:56:11.510Z,2.17
2022-08-08T05:58:17.759Z,2.17
2022-08-08T06:00:25.835Z,2.10
2022-08-08T06:02:51.866Z,2.47
2022-08-08T06:04:59.135Z,2.22
2022-08-08T06:07:02.684Z,2.67
2022-08-08T06:09:59.105Z,2.20
2022-08-08T06:11:32.152Z,2.05
2022-08-08T06:13:36.366Z,2.00
2022-08-08T06:15:53.465Z,2.28
2022-08-08T06:18:20.599Z,1.92
2022-08-08T06:20:20.857Z,2.13
2022-08-08T06:22:38.799Z,1.90
2022-08-08T06:24:47.055Z,2.17
2022-08-08T06:27:05.492Z,2.28
2022-08-08T06:29:48.526Z,1.80
2022-08-08T06:31:52.304Z,2.05
2022-08-08T06:36:53.520Z,2.33
2022-08-08T06:38:58.980Z,1.98
2022-08-08T06:41:07.487Z,2.30
2022-08-08T06:43:11.498Z,2.45
2022-08-08T06:45:15.257Z,2.83
2022-08-08T06:47:22.149Z,2.40
2022-08-08T06:49:56.480Z,2.67
2022-08-08T06:51:57.757Z,2.55
2022-08-08T06:56:04.260Z,2.75
2022-08-08T06:58:07.144Z,2.42
2022-08-08T07:00:12.573Z,2.88
2022-08-08T07:02:28.663Z,2.78
2022-08-08T07:04:49.707Z,2.65
2022-08-08T07:07:01.138Z,2.40
2022-08-08T07:09:21.064Z,2.47
2022-08-08T07:11:30.231Z,2.58
2022-08-08T07:14:00.680Z,2.88
2022-08-08T07:16:12.480Z,2.88
2022-08-08T07:18:36.788Z,2.30
2022-08-08T07:20:50.413Z,2.50
2022-08-08T07:23:00.079Z,2.45
2022-08-08T07:25:06.749Z,2.33
2022-08-08T07:27:16.393Z,2.80
2022-08-08T07:30:02.217Z,2.60
2022-08-08T07:31:44.580Z,3.55
2022-08-08T07:33:58.842Z,3.40
2022-08-08T07:38:18.397Z,2.38
2022-08-08T07:40:29.666Z,3.70
2022-08-08T07:42:37.706Z,3.30
2022-08-08T07:44:43.715Z,3.88
2022-08-08T07:46:46.761Z,3.53
2022-08-08T07:48:49.687Z,3.97
2022-08-08T07:50:55.156Z,4.35
2022-08-08T07:53:01.346Z,2.80
2022-08-08T07:55:19.360Z,3.55
2022-08-08T07:57:48.507Z,3.63
2022-08-08T07:59:54.585Z,4.18
2022-08-08T08:02:35.444Z,2.90
2022-08-08T08:04:29.531Z,2.85
2022-08-08T08:06:34.088Z,3.13
2022-08-08T08:08:52.373Z,3.33
2022-08-08T08:10:58.803Z,3.10
2022-08-08T08:13:26.011Z,4.18
2022-08-08T08:15:43.538Z,3.72
2022-08-08T08:17:55.427Z,2.67
2022-08-08T08:20:03.028Z,2.97
2022-08-08T08:22:07.821Z,2.53
2022-08-08T08:24:10.850Z,2.58
2022-08-08T08:26:15.345Z,2.80
2022-08-08T08:28:29.963Z,3.25
2022-08-08T08:30:34.015Z,2.67
2022-08-08T08:32:49.526Z,2.72
2022-08-08T08:34:54.404Z,3.40
2022-08-08T08:37:20.226Z,2.53
2022-08-08T08:39:23.585Z,2.55
2022-08-08T08:41:31.138Z,2.85
2022-08-08T08:43:42.492Z,2.65
2022-08-08T08:45:49.426Z,2.80
2022-08-08T08:48:00.821Z,3.10
2022-08-08T08:50:04.136Z,3.10
2022-08-08T08:52:08.108Z,3.05
2022-08-08T08:54:12.955Z,2.75
2022-08-08T08:56:24.004Z,2.83
2022-08-08T08:58:37.899Z,3.10
2022-08-08T09:01:05.062Z,2.97
2022-08-08T09:03:09.320Z,3.35
2022-08-08T09:05:13.817Z,3.28
2022-08-08T09:07:39.624Z,3.50
2022-08-08T09:09:57.497Z,2.92
2022-08-08T09:12:06.285Z,3.03
2022-08-08T09:14:11.699Z,2.75
2022-08-08T09:16:15.738Z,3.00
2022-08-08T09:18:20.961Z,2.50
2022-08-08T09:22:01.169Z,2.78
2022-08-08T09:22:49.829Z,2.42
2022-08-08T09:24:53.944Z,2.47
2022-08-08T09:27:14.945Z,2.95
2022-08-08T09:29:24.995Z,3.58
2022-08-08T09:31:42.662Z,2.92
2022-08-08T09:34:30.307Z,2.93
2022-08-08T09:36:28.602Z,2.80
2022-08-08T09:38:53.389Z,2.35
2022-08-08T09:41:03.515Z,2.72
2022-08-08T09:44:05.578Z,3.30
2022-08-08T09:46:04.122Z,3.08
2022-08-08T09:48:17.904Z,2.70
2022-08-08T09:50:28.197Z,2.63
2022-08-08T09:52:54.203Z,2.22
2022-08-08T09:54:55.514Z,2.38
2022-08-08T09:57:02.799Z,2.47
2022-08-08T09:59:31.918Z,2.33
2022-08-08T10:01:59.363Z,2.03
2022-08-08T10:03:58.095Z,2.17
2022-08-08T10:06:19.310Z,2.20
2022-08-08T10:08:32.957Z,2.20
2022-08-08T10:10:50.037Z,2.13
2022-08-08T10:12:57.470Z,1.85
2022-08-08T10:15:18.026Z,2.15
2022-08-08T10:17:56.526Z,2.05
2022-08-08T10:19:46.164Z,2.40
2022-08-08T10:22:01.957Z,2.40
2022-08-08T10:24:29.314Z,1.95
2022-08-08T10:26:57.520Z,2.90
2022-08-08T10:29:05.721Z,2.33
2022-08-08T10:31:47.568Z,2.30
2022-08-08T10:34:18.507Z,2.10
2022-08-08T10:36:20.385Z,2.85
2022-08-08T10:38:26.535Z,2.95
2022-08-08T10:40:32.342Z,2.30
2022-08-08T10:42:37.385Z,2.38
2022-08-08T10:44:42.135Z,2.65
2022-08-08T10:46:44.666Z,3.33
2022-08-08T10:48:56.867Z,2.10
2022-08-08T10:51:12.366Z,2.10
2022-08-08T10:53:16.448Z,2.22
2022-08-08T10:55:41.218Z,2.10
2022-08-08T10:57:53.057Z,1.70
2022-08-08T10:59:59.050Z,1.48
2022-08-08T11:02:02.708Z,2.33
2022-08-08T11:04:10.613Z,2.25
2022-08-08T11:06:15.967Z,2.08
2022-08-08T11:08:42.960Z,2.35
2022-08-08T11:11:59.841Z,1.80
2022-08-08T11:13:59.875Z,1.75
2022-08-08T11:16:08.006Z,1.90
2022-08-08T11:18:14.451Z,3.22
2022-08-08T11:20:27.732Z,1.70
2022-08-08T11:22:33.177Z,1.67
2022-08-08T11:24:37.794Z,2.65
2022-08-08T11:26:56.275Z,1.40
2022-08-08T11:29:04.926Z,1.50
2022-08-08T11:31:08.658Z,2.10
2022-08-08T11:33:13.109Z,1.73
2022-08-08T11:35:24.880Z,1.83
2022-08-08T11:38:34.386Z,1.38
2022-08-08T11:40:07.004Z,2.60
2022-08-08T11:42:10.484Z,1.88
2022-08-08T11:44:15.125Z,1.13
2022-08-08T11:46:18.688Z,2.63
2022-08-08T11:48:23.302Z,1.67
2022-08-08T11:50:31.049Z,1.58
2022-08-08T11:52:35.889Z,1.65
2022-08-08T11:54:46.399Z,1.98
2022-08-08T11:56:56.632Z,1.75
2022-08-08T11:59:08.192Z,1.70
2022-08-08T12:01:16.347Z,1.73
2022-08-08T12:03:20.865Z,1.40
2022-08-08T12:05:41.629Z,1.60
2022-08-08T12:07:53.135Z,1.45
2022-08-08T12:10:00.486Z,1.83
2022-08-08T12:12:06.143Z,1.15
2022-08-08T12:14:11.795Z,1.48
2022-08-08T12:16:17.304Z,1.65
2022-08-08T12:18:25.483Z,1.50
2022-08-08T12:20:40.390Z,2.17
2022-08-08T12:22:51.202Z,2.00
2022-08-08T12:24:56.195Z,2.15
2022-08-08T12:26:59.396Z,2.55
2022-08-08T12:29:01.952Z,2.00
2022-08-08T12:31:10.640Z,1.70
2022-08-08T12:33:21.288Z,1.88
2022-08-08T12:35:23.925Z,2.05
2022-08-08T12:37:40.047Z,1.65
2022-08-08T12:40:02.182Z,6.18
2022-08-08T12:42:06.979Z,2.25
2022-08-08T12:44:32.319Z,1.90
2022-08-08T12:46:36.302Z,1.83
2022-08-08T12:48:39.118Z,1.83
2022-08-08T12:50:46.722Z,2.08
2022-08-08T12:52:54.477Z,2.70
2022-08-08T12:55:13.198Z,3.75
2022-08-08T12:57:26.354Z,1.73
2022-08-08T12:59:44.611Z,1.77
2022-08-08T13:02:01.706Z,1.50
2022-08-08T13:04:19.287Z,2.00
2022-08-08T13:06:27.383Z,1.90
2022-08-08T13:08:53.453Z,1.63
2022-08-08T13:10:58.693Z,1.83
2022-08-08T13:13:05.825Z,2.20
2022-08-08T13:15:19.470Z,1.60
2022-08-08T13:18:08.644Z,2.03
2022-08-08T13:19:49.770Z,2.50
2022-08-08T13:21:58.307Z,2.17
2022-08-08T13:24:08.311Z,1.50
2022-08-08T13:26:21.697Z,1.92
2022-08-08T13:28:32.791Z,1.92
2022-08-08T13:30:35.556Z,1.65
2022-08-08T13:32:39.959Z,2.10
2022-08-08T13:34:42.601Z,1.98
2022-08-08T13:36:45.481Z,1.58
2022-08-08T13:38:47.995Z,1.42
2022-08-08T13:40:51.427Z,1.42
2022-08-08T13:42:56.032Z,1.52
2022-08-08T13:45:01.310Z,1.98
2022-08-08T13:47:07.436Z,1.90
2022-08-08T13:50:36.846Z,2.88
2022-08-08T13:51:41.861Z,2.42
2022-08-08T13:54:00.273Z,1.90
2022-08-08T13:56:11.290Z,1.88
2022-08-08T13:58:20.759Z,2.22
2022-08-08T14:00:24.627Z,2.10
2022-08-08T14:02:32.835Z,2.40
2022-08-08T14:04:36.748Z,2.20
2022-08-08T14:06:45.589Z,2.80
2022-08-08T14:08:49.747Z,1.98
2022-08-08T14:10:52.505Z,2.60
2022-08-08T14:12:57.068Z,2.38
2022-08-08T14:15:03.134Z,2.53
2022-08-08T14:17:11.851Z,2.22
2022-08-08T14:19:57.739Z,1.83
2022-08-08T14:22:24.214Z,2.65
2022-08-08T14:24:33.809Z,3.50
2022-08-08T14:26:46.322Z,1.90
2022-08-08T14:28:57.426Z,2.50
2022-08-08T14:31:11.550Z,2.03
2022-08-08T14:33:36.547Z,2.38
2022-08-08T14:35:41.690Z,2.63
2022-08-08T14:38:00.845Z,2.35
2022-08-08T14:40:07.129Z,2.20
2022-08-08T14:42:10.128Z,2.50
2022-08-08T14:44:21.214Z,2.55
2022-08-08T14:46:32.765Z,2.33
2022-08-08T14:48:57.095Z,2.28
2022-08-08T14:51:06.943Z,2.70
2022-08-08T14:53:14.562Z,2.75
2022-08-08T14:55:22.402Z,1.98
2022-08-08T14:58:02.379Z,2.17
2022-08-08T15:00:01.954Z,2.08
2022-08-08T15:02:06.806Z,2.50
2022-08-08T15:04:11.426Z,2.35
2022-08-08T15:06:16.549Z,2.60
2022-08-08T15:08:22.516Z,2.42
2022-08-08T15:10:38.466Z,12.30
2022-08-08T15:12:46.875Z,2.63
2022-08-08T15:14:49.772Z,2.60
2022-08-08T15:16:52.383Z,3.20
2022-08-08T15:18:55.241Z,2.42
2022-08-08T15:20:57.855Z,2.60
2022-08-08T15:23:01.642Z,3.05
2022-08-08T15:25:08.625Z,2.40
2022-08-08T15:27:57.787Z,2.20
2022-08-08T15:29:42.819Z,2.88
2022-08-08T15:32:18.112Z,2.38
2022-08-08T15:34:18.685Z,2.40
2022-08-08T15:36:32.745Z,1.75
2022-08-08T15:38:35.367Z,2.28
2022-08-08T15:40:44.368Z,1.50
2022-08-08T15:42:47.578Z,2.40
2022-08-08T15:44:52.271Z,1.95
2022-08-08T15:46:57.084Z,1.27
2022-08-08T15:48:59.764Z,1.80
2022-08-08T15:51:03.156Z,1.77
2022-08-08T15:53:09.330Z,1.75
2022-08-08T15:55:13.824Z,1.63
2022-08-08T15:57:16.532Z,2.10
2022-08-08T15:59:21.067Z,1.20
2022-08-08T16:01:59.555Z,1.90
2022-08-08T16:04:03.723Z,1.60
2022-08-08T16:06:06.540Z,1.60
2022-08-08T16:08:20.168Z,1.52
2022-08-08T16:13:05.868Z,1.60
2022-08-08T16:13:14.269Z,1.20
2022-08-08T16:15:09.972Z,1.50
2022-08-08T16:17:15.297Z,1.80
2022-08-08T16:19:59.549Z,2.08
2022-08-08T16:22:01.540Z,1.60
2022-08-08T16:24:07.005Z,2.05
2022-08-08T16:26:17.538Z,1.90
2022-08-08T16:28:32.613Z,2.55
2022-08-08T16:30:38.390Z,2.00
2022-08-08T16:32:43.138Z,1.75
2022-08-08T16:34:51.242Z,2.20
2022-08-08T16:36:54.035Z,1.75
2022-08-08T16:38:58.039Z,2.20
2022-08-08T16:41:02.626Z,1.83
2022-08-08T16:43:05.776Z,2.20
2022-08-08T16:45:11.478Z,2.28
2022-08-08T16:47:41.705Z,2.05
2022-08-08T16:49:47.783Z,2.42
2022-08-08T16:55:00.530Z,2.63
2022-08-08T16:55:02.368Z,2.25
2022-08-08T16:56:38.042Z,2.80
2022-08-08T16:59:01.054Z,2.67
2022-08-08T17:01:12.052Z,2.15
2022-08-08T17:03:18.134Z,3.40
2022-08-08T17:07:51.260Z,2.55
2022-08-08T17:09:54.335Z,2.30
2022-08-08T17:11:59.424Z,4.05
2022-08-08T17:14:03.434Z,5.22
2022-08-08T17:16:06.533Z,6.97
2022-08-08T17:18:18.429Z,9.25
2022-08-08T17:20:21.527Z,8.27
2022-08-08T17:22:39.228Z,4.70
2022-08-08T17:24:53.630Z,4.20
2022-08-08T17:26:57.900Z,3.60
2022-08-08T17:29:04.235Z,3.78
2022-08-08T17:31:39.031Z,3.83
2022-08-08T17:34:37.435Z,3.53
2022-08-08T17:36:12.560Z,3.78
2022-08-08T17:38:17.697Z,3.53
2022-08-08T17:40:21.782Z,2.80
2022-08-08T17:42:24.607Z,3.30
2022-08-08T17:44:27.269Z,3.55
2022-08-08T17:46:40.254Z,3.00
2022-08-08T17:48:43.595Z,2.75
2022-08-08T17:50:50.544Z,3.33
2022-08-08T17:52:54.091Z,3.10
2022-08-08T17:55:00.409Z,3.70
2022-08-08T17:57:03.185Z,3.05
2022-08-08T17:59:07.769Z,3.35
2022-08-08T18:01:10.424Z,3.22
2022-08-08T18:03:14.153Z,3.47
2022-08-08T18:05:22.995Z,2.78
2022-08-08T18:08:04.222Z,3.13
2022-08-08T18:09:50.218Z,3.30
2022-08-08T18:11:55.747Z,2.72
2022-08-08T18:13:59.073Z,2.63
2022-08-08T18:16:04.592Z,3.45
2022-08-08T18:18:28.195Z,2.88
2022-08-08T18:20:44.559Z,3.22
2022-08-08T18:22:53.868Z,3.47
2022-08-08T18:24:57.513Z,3.35
2022-08-08T18:27:06.216Z,3.15
2022-08-08T18:29:25.816Z,2.78
2022-08-08T18:31:33.042Z,3.08
2022-08-08T18:34:10.644Z,3.75
2022-08-08T18:36:02.679Z,3.38
2022-08-08T18:38:16.863Z,3.10
2022-08-08T18:40:19.820Z,3.20
2022-08-08T18:42:37.755Z,3.20
2022-08-08T18:44:54.953Z,2.70
2022-08-08T18:47:00.748Z,3.65
2022-08-08T18:49:04.009Z,2.90
2022-08-08T18:51:33.366Z,3.45
2022-08-08T18:54:00.234Z,3.25
2022-08-08T18:55:56.075Z,3.58
2022-08-08T18:57:58.775Z,3.35
2022-08-08T19:00:02.877Z,2.88
2022-08-08T19:02:25.004Z,3.17
2022-08-08T19:04:29.636Z,3.55
2022-08-08T19:06:34.041Z,2.75
2022-08-08T19:08:37.624Z,2.83
2022-08-08T19:10:43.180Z,3.17
2022-08-08T19:12:53.041Z,2.95
2022-08-08T19:14:56.283Z,2.75
2022-08-08T19:16:58.996Z,3.45
2022-08-08T19:19:03.974Z,2.88
2022-08-08T19:21:29.365Z,3.25
2022-08-08T19:23:35.790Z,3.60
2022-08-08T19:26:22.535Z,3.30
2022-08-08T19:28:01.234Z,3.05
2022-08-08T19:30:05.168Z,3.33
2022-08-08T19:32:22.847Z,3.42
2022-08-08T19:34:35.634Z,2.80
2022-08-08T19:36:41.849Z,3.05
2022-08-08T19:38:48.276Z,3.03
2022-08-08T19:40:56.249Z,2.60
2022-08-08T19:42:59.139Z,2.83
2022-08-08T19:45:07.149Z,3.75
2022-08-08T19:47:10.269Z,3.15
2022-08-08T19:49:15.060Z,3.65
2022-08-08T19:51:25.141Z,3.10
2022-08-08T19:53:52.030Z,3.50
2022-08-08T19:55:56.390Z,4.03
2022-08-08T19:57:59.087Z,3.95
2022-08-08T20:00:03.510Z,3.35
2022-08-08T20:02:14.301Z,3.25
2022-08-08T20:04:18.095Z,3.03
2022-08-08T20:06:24.982Z,3.38
2022-08-08T20:08:32.099Z,3.25
2022-08-08T20:10:34.943Z,3.35
2022-08-08T20:12:58.954Z,3.45
2022-08-08T20:15:15.163Z,3.13
2022-08-08T20:17:26.943Z,2.83
2022-08-08T20:21:38.445Z,3.15
2022-08-08T20:23:41.216Z,3.22
2022-08-08T20:25:43.924Z,3.50
2022-08-08T20:27:49.445Z,3.42
2022-08-08T20:30:01.078Z,3.00
2022-08-08T20:32:13.193Z,3.25
2022-08-08T20:34:30.341Z,2.92
2022-08-08T20:36:35.516Z,2.90
2022-08-08T20:38:41.940Z,3.42
2022-08-08T20:40:51.127Z,3.45
2022-08-08T20:42:55.539Z,3.60
2022-08-08T20:44:59.070Z,3.33
2022-08-08T20:47:02.907Z,3.58
2022-08-08T20:49:07.534Z,3.20
2022-08-08T20:51:14.445Z,3.22
2022-08-08T20:54:00.214Z,3.92
2022-08-08T20:55:42.410Z,3.03
2022-08-08T20:57:47.790Z,3.50
2022-08-08T20:59:54.284Z,3.47
2022-08-08T21:02:07.161Z,3.20
2022-08-08T21:04:14.355Z,3.47
2022-08-08T21:06:17.643Z,3.38
2022-08-08T21:08:36.134Z,3.10
2022-08-08T21:10:43.346Z,3.20
2022-08-08T21:12:46.865Z,2.78
2022-08-08T21:14:55.856Z,3.88
2022-08-08T21:16:58.640Z,3.13
2022-08-08T21:19:01.838Z,3.70
2022-08-08T21:21:39.796Z,3.85
2022-08-08T21:23:59.296Z,3.72
2022-08-08T21:26:07.282Z,3.03
2022-08-08T21:28:16.187Z,3.78
2022-08-08T21:30:21.922Z,3.28
2022-08-08T21:32:25.806Z,3.58
2022-08-08T21:34:30.083Z,3.42
2022-08-08T21:36:32.867Z,3.85
2022-08-08T21:38:36.057Z,3.58
2022-08-08T21:40:38.675Z,3.35
2022-08-08T21:42:58.222Z,2.78
2022-08-08T21:45:20.833Z,3.25
2022-08-08T21:48:06.844Z,3.30
2022-08-08T21:49:46.215Z,3.20
2022-08-08T21:54:30.979Z,3.58
2022-08-08T21:54:33.582Z,3.33
2022-08-08T21:56:43.356Z,3.30
2022-08-08T21:58:46.342Z,3.95
2022-08-08T22:00:57.667Z,3.45
2022-08-08T22:03:06.985Z,3.88
2022-08-08T22:05:10.920Z,3.33
2022-08-08T22:07:17.784Z,3.42
2022-08-08T22:09:26.971Z,3.30
2022-08-08T22:12:02.136Z,3.22
2022-08-08T22:14:03.409Z,3.20
2022-08-08T22:16:08.797Z,4.00
2022-08-08T22:18:12.492Z,3.50
2022-08-08T22:20:23.729Z,3.88
2022-08-08T22:22:34.518Z,4.03
2022-08-08T22:24:40.982Z,3.72
2022-08-08T22:27:01.388Z,3.33
2022-08-08T22:29:59.092Z,4.47
2022-08-08T22:31:29.500Z,4.05
2022-08-08T22:34:12.013Z,4.18
2022-08-08T22:36:05.429Z,5.72
2022-08-08T22:38:17.728Z,6.72
2022-08-08T22:40:20.643Z,5.90
2022-08-08T22:42:32.138Z,6.72
2022-08-08T22:44:38.016Z,6.28
2022-08-08T22:46:41.195Z,7.05
2022-08-08T22:48:50.770Z,7.32
2022-08-08T22:50:57.230Z,3.80
2022-08-08T22:54:29.266Z,4.40
2022-08-08T22:55:25.288Z,4.22
2022-08-08T22:57:44.152Z,3.25
2022-08-08T22:59:58.986Z,3.75
2022-08-08T23:02:04.662Z,4.27
2022-08-08T23:04:15.743Z,4.75
2022-08-08T23:06:34.902Z,4.25
2022-08-08T23:08:44.518Z,5.28
2022-08-08T23:11:06.473Z,5.18
2022-08-08T23:13:16.033Z,5.20
2022-08-08T23:16:37.715Z,4.93
2022-08-08T23:17:54.041Z,4.75
2022-08-08T23:20:00.550Z,5.50
2022-08-08T23:22:06.719Z,6.03
2022-08-08T23:24:10.916Z,5.57
2022-08-08T23:26:13.637Z,7.32
2022-08-08T23:28:18.902Z,6.80
2022-08-08T23:30:23.676Z,6.90
2022-08-08T23:32:26.572Z,7.22
2022-08-08T23:34:31.077Z,6.47
2022-08-08T23:36:33.831Z,6.93
2022-08-08T23:38:44.399Z,7.28
2022-08-08T23:40:47.485Z,7.32
2022-08-08T23:42:57.013Z,7.63
2022-08-08T23:45:00.365Z,8.10
2022-08-08T23:49:04.179Z,8.10
2022-08-08T23:49:26.803Z,6.85
2022-08-08T23:52:03.698Z,6.90
2022-08-08T23:54:05.003Z,5.65
2022-08-08T23:56:09.261Z,5.28
2022-08-08T23:58:37.849Z,6.07
